Time;durP1;ratioP1;P1;durP2;ratioP2;P2;SDS_P1;SDS_P2;PMS_P1;PMS_P2;Temp;Humidity;BMP_temperature;BMP_pressure;BME280_temperature;BME280_humidity;BME280_pressure;Samples;Min_cycle;Max_cycle;Signal;HPM_P1;HPM_P2
2022/01/01 00:00:16;;;;;;;36.97;16.42;;;4.10;74.20;;;;;;5091262;28;20416;-23
2022/01/01 00:02:43;;;;;;;53.55;20.10;;;4.10;74.10;;;;;;5093313;28;20464;-22
2022/01/01 00:05:11;;;;;;;54.75;20.38;;;4.10;74.50;;;;;;5092677;28;20395;-22
2022/01/01 00:07:40;;;;;;;39.50;18.58;;;4.00;74.10;;;;;;5092977;28;20055;-22
2022/01/01 00:10:10;;;;;;;12.98;7.22;;;4.00;74.30;;;;;;5092957;28;20030;-23
2022/01/01 00:12:36;;;;;;;10.52;6.47;;;4.00;74.00;;;;;;5093949;28;20024;-22
2022/01/01 00:15:03;;;;;;;43.95;19.75;;;3.90;74.00;;;;;;5096229;28;20028;-22
2022/01/01 00:17:32;;;;;;;32.60;18.23;;;3.90;74.20;;;;;;5096232;28;20032;-22
2022/01/01 00:19:58;;;;;;;21.92;9.38;;;3.90;74.30;;;;;;5096096;28;20073;-22
2022/01/01 00:22:23;;;;;;;32.53;16.65;;;3.90;74.20;;;;;;5096055;28;20028;-22
2022/01/01 00:24:49;;;;;;;90.63;28.65;;;3.90;74.40;;;;;;5095561;28;20028;-23
2022/01/01 00:27:15;;;;;;;38.83;17.48;;;3.90;74.40;;;;;;5096025;28;20500;-22
2022/01/01 00:29:41;;;;;;;58.28;23.73;;;3.90;74.10;;;;;;5096036;28;20482;-23
2022/01/01 00:32:07;;;;;;;36.95;19.85;;;4.00;74.60;;;;;;5095903;28;20032;-22
2022/01/01 00:34:37;;;;;;;18.52;10.75;;;4.00;74.80;;;;;;5095700;28;20028;-22
2022/01/01 00:37:04;;;;;;;29.45;13.45;;;4.00;74.50;;;;;;5094604;28;20028;-22
2022/01/01 00:39:30;;;;;;;30.58;15.80;;;4.00;74.50;;;;;;5095847;28;20107;-22
2022/01/01 00:41:56;;;;;;;16.23;9.82;;;4.00;74.50;;;;;;5095829;28;20107;-22
2022/01/01 00:44:21;;;;;;;40.72;18.20;;;4.00;74.60;;;;;;5095859;28;20028;-22
2022/01/01 00:46:47;;;;;;;45.95;18.85;;;4.00;74.20;;;;;;5095688;28;20467;-22
2022/01/01 00:49:13;;;;;;;43.42;19.23;;;4.00;74.50;;;;;;5095910;28;20020;-22
2022/01/01 00:51:39;;;;;;;13.75;8.57;;;4.00;74.60;;;;;;5095590;28;20379;-22
2022/01/01 00:54:05;;;;;;;59.65;25.48;;;4.00;74.80;;;;;;5095296;28;20040;-22
2022/01/01 00:56:31;;;;;;;16.40;9.13;;;3.90;74.60;;;;;;5095363;28;20031;-22
2022/01/01 00:58:56;;;;;;;19.67;9.32;;;3.90;74.50;;;;;;5095821;28;20043;-23
2022/01/01 01:01:22;;;;;;;11.27;6.40;;;3.90;74.30;;;;;;5095726;28;20043;-22
2022/01/01 01:03:48;;;;;;;21.20;10.30;;;3.90;74.20;;;;;;5095641;28;20497;-22
2022/01/01 01:06:14;;;;;;;45.33;18.80;;;3.90;74.30;;;;;;5095347;28;20065;-23
2022/01/01 01:08:41;;;;;;;32.13;14.25;;;3.90;74.30;;;;;;5095257;28;20384;-22
2022/01/01 01:11:08;;;;;;;71.57;22.27;;;4.00;74.40;;;;;;5095240;28;20032;-22
2022/01/01 01:13:40;;;;;;;48.58;20.73;;;3.90;74.80;;;;;;5095090;28;20396;-22
2022/01/01 01:16:06;;;;;;;38.78;17.17;;;3.90;74.80;;;;;;5095517;28;20024;-23
2022/01/01 01:18:32;;;;;;;12.43;6.70;;;3.90;75.20;;;;;;5095160;28;20089;-23
2022/01/01 01:20:58;;;;;;;24.33;12.43;;;3.90;74.60;;;;;;5095283;28;20406;-23
2022/01/01 01:23:23;;;;;;;14.93;8.20;;;3.90;74.80;;;;;;5094918;28;20532;-22
2022/01/01 01:25:49;;;;;;;13.93;8.15;;;3.90;74.60;;;;;;5093740;28;20024;-22
2022/01/01 01:28:15;;;;;;;35.67;15.05;;;3.90;74.40;;;;;;5094701;28;20384;-23
2022/01/01 01:30:42;;;;;;;31.90;14.30;;;3.90;74.30;;;;;;5094832;28;20032;-22
2022/01/01 01:33:10;;;;;;;14.70;8.13;;;3.90;74.90;;;;;;5095068;28;20047;-23
2022/01/01 01:35:36;;;;;;;44.20;16.30;;;3.80;74.70;;;;;;5095165;28;20028;-22
2022/01/01 01:38:03;;;;;;;47.45;17.35;;;3.80;74.90;;;;;;5095061;28;20104;-22
2022/01/01 01:40:29;;;;;;;27.90;13.65;;;3.80;75.20;;;;;;5094743;28;20032;-23
2022/01/01 01:42:55;;;;;;;36.30;15.50;;;3.70;75.00;;;;;;5094930;28;20480;-22
2022/01/01 01:45:23;;;;;;;59.80;20.42;;;3.70;74.80;;;;;;5094745;28;20391;-22
2022/01/01 01:47:50;;;;;;;16.60;9.18;;;3.70;75.00;;;;;;5095425;28;20016;-22
2022/01/01 01:50:19;;;;;;;20.25;8.27;;;3.60;74.90;;;;;;5095002;28;20109;-22
2022/01/01 01:52:49;;;;;;;61.75;21.10;;;3.70;74.90;;;;;;5094406;28;20075;-22
2022/01/01 01:55:16;;;;;;;22.35;11.20;;;3.60;74.70;;;;;;5094386;28;20039;-22
2022/01/01 01:57:42;;;;;;;11.43;7.07;;;3.60;75.10;;;;;;5094683;28;20027;-22
2022/01/01 02:03:01;;;;;;;25.27;11.90;;;3.60;75.20;;;;;;5093228;28;20111;-22
2022/01/01 02:05:27;;;;;;;24.52;10.30;;;3.70;74.90;;;;;;5094119;28;20135;-22
2022/01/01 02:07:53;;;;;;;35.22;18.05;;;3.70;74.70;;;;;;5094137;28;20020;-23
2022/01/01 02:10:20;;;;;;;22.70;12.00;;;3.70;74.80;;;;;;5093962;28;20030;-22
2022/01/01 02:12:54;;;;;;;20.85;11.50;;;3.60;74.70;;;;;;5094355;28;20095;-22
2022/01/01 02:18:09;;;;;;;77.20;27.17;;;3.70;74.50;;;;;;5094446;28;20024;-22
2022/01/01 02:20:35;;;;;;;33.83;15.15;;;3.60;75.10;;;;;;5093711;28;20020;-22
2022/01/01 02:23:01;;;;;;;35.92;15.90;;;3.60;75.00;;;;;;5092671;28;20050;-23
2022/01/01 02:25:29;;;;;;;13.13;7.70;;;3.60;75.00;;;;;;5094123;28;20075;-22
2022/01/01 02:27:55;;;;;;;12.88;7.30;;;3.50;74.90;;;;;;5092581;28;20073;-23
2022/01/01 02:30:22;;;;;;;18.30;9.95;;;3.50;74.90;;;;;;5093541;28;20028;-22
2022/01/01 02:32:48;;;;;;;26.40;11.60;;;3.50;74.90;;;;;;5093764;28;20019;-22
2022/01/01 02:35:17;;;;;;;9.80;5.57;;;3.50;75.10;;;;;;5093686;28;20035;-22
2022/01/01 02:37:43;;;;;;;12.25;7.68;;;3.50;74.90;;;;;;5093922;28;20020;-22
2022/01/01 02:40:11;;;;;;;14.68;10.05;;;3.50;74.80;;;;;;5092532;28;20019;-22
2022/01/01 02:42:39;;;;;;;7.93;5.30;;;3.60;74.80;;;;;;5093343;28;20060;-22
2022/01/01 02:45:11;;;;;;;37.08;13.25;;;3.60;74.60;;;;;;5093520;28;20087;-22
2022/01/01 02:47:37;;;;;;;45.83;19.30;;;3.60;74.50;;;;;;5093543;28;20023;-23
2022/01/01 02:50:05;;;;;;;48.17;17.30;;;3.60;74.60;;;;;;5093795;28;20078;-23
2022/01/01 02:52:31;;;;;;;30.27;13.48;;;3.60;74.80;;;;;;5092830;28;20416;-22
2022/01/01 02:54:58;;;;;;;20.42;11.98;;;3.60;74.90;;;;;;5093336;28;20131;-23
2022/01/01 02:57:24;;;;;;;44.75;18.70;;;3.60;74.60;;;;;;5092086;28;20127;-22
2022/01/01 02:59:50;;;;;;;19.38;11.32;;;3.50;74.90;;;;;;5093418;28;20024;-22
2022/01/01 03:02:16;;;;;;;56.10;19.75;;;3.50;74.90;;;;;;5093077;28;20035;-23
2022/01/01 03:04:42;;;;;;;18.98;11.20;;;3.50;74.70;;;;;;5093249;28;20016;-22
2022/01/01 03:07:08;;;;;;;34.45;13.48;;;3.50;74.80;;;;;;5093413;28;20027;-23
2022/01/01 03:09:34;;;;;;;47.55;15.52;;;3.40;74.60;;;;;;5093487;28;20051;-22
2022/01/01 03:12:06;;;;;;;17.05;8.98;;;3.40;74.60;;;;;;5093240;28;20046;-23
2022/01/01 03:14:33;;;;;;;45.20;17.00;;;3.40;74.60;;;;;;5092950;28;20028;-23
2022/01/01 03:16:59;;;;;;;42.38;15.40;;;3.40;74.70;;;;;;5093577;28;20024;-23
2022/01/01 03:19:25;;;;;;;13.00;6.80;;;3.40;75.10;;;;;;5093145;28;20027;-23
2022/01/01 03:21:52;;;;;;;53.05;19.50;;;3.40;74.80;;;;;;5093263;28;20377;-22
2022/01/01 03:24:18;;;;;;;42.35;16.95;;;3.40;74.90;;;;;;5092931;28;20372;-23
2022/01/01 03:26:44;;;;;;;19.13;9.60;;;3.30;74.90;;;;;;5093075;28;20081;-23
2022/01/01 03:29:10;;;;;;;17.83;8.75;;;3.30;74.90;;;;;;5093888;28;20404;-22
2022/01/01 03:31:36;;;;;;;13.68;7.93;;;3.30;75.00;;;;;;5093174;28;20021;-22
2022/01/01 03:34:03;;;;;;;55.47;17.10;;;3.30;74.80;;;;;;5092879;28;20027;-22
2022/01/01 03:36:29;;;;;;;51.80;19.30;;;3.30;74.80;;;;;;5092691;28;20035;-23
2022/01/01 03:38:56;;;;;;;38.92;17.85;;;3.30;75.40;;;;;;5093262;28;20038;-22
2022/01/01 03:41:23;;;;;;;33.53;14.07;;;3.20;75.40;;;;;;5093221;28;20124;-23
2022/01/01 03:43:49;;;;;;;59.08;20.67;;;3.20;75.20;;;;;;5092946;28;20028;-23
2022/01/01 03:46:15;;;;;;;116.38;32.03;;;3.20;75.40;;;;;;5093107;28;20059;-23
2022/01/01 03:48:41;;;;;;;90.97;27.05;;;3.10;75.60;;;;;;5097022;28;20042;-23
2022/01/01 03:51:07;;;;;;;43.85;17.63;;;3.00;76.30;;;;;;5097128;28;20514;-23
2022/01/01 03:53:33;;;;;;;81.82;24.33;;;3.00;76.00;;;;;;5096809;28;20503;-23
2022/01/01 03:55:59;;;;;;;35.10;14.20;;;2.90;76.00;;;;;;5096748;28;20380;-23
2022/01/01 03:58:25;;;;;;;16.98;9.77;;;2.90;76.00;;;;;;5096828;28;20066;-23
2022/01/01 04:00:51;;;;;;;30.27;12.85;;;2.90;76.00;;;;;;5096608;28;20024;-22
2022/01/01 04:03:17;;;;;;;64.90;21.27;;;2.90;75.90;;;;;;5095272;28;20028;-23
2022/01/01 04:05:45;;;;;;;34.70;15.43;;;2.90;75.70;;;;;;5096777;28;20032;-22
2022/01/01 04:08:12;;;;;;;20.65;10.18;;;2.90;75.80;;;;;;5096413;28;20035;-22
2022/01/01 04:10:39;;;;;;;47.95;16.90;;;2.90;75.60;;;;;;5096664;28;20103;-22
2022/01/01 04:13:07;;;;;;;77.28;24.00;;;2.90;75.60;;;;;;5095104;28;20555;-22
2022/01/01 04:15:35;;;;;;;72.03;21.52;;;2.90;75.90;;;;;;5096309;28;20027;-22
2022/01/01 04:18:07;;;;;;;61.67;19.13;;;2.90;76.00;;;;;;5096749;28;20028;-23
2022/01/01 04:20:34;;;;;;;67.47;24.17;;;2.90;75.80;;;;;;5096119;28;20024;-22
2022/01/01 04:23:00;;;;;;;33.35;18.20;;;2.90;75.90;;;;;;5096504;28;20024;-23
2022/01/01 04:25:27;;;;;;;30.48;14.60;;;2.80;76.40;;;;;;5094882;28;20022;-23
2022/01/01 04:27:55;;;;;;;23.70;12.50;;;2.70;76.30;;;;;;5096427;28;20430;-23
2022/01/01 04:30:21;;;;;;;22.95;10.68;;;2.70;76.00;;;;;;5095926;28;20024;-23
2022/01/01 04:32:49;;;;;;;26.05;14.25;;;2.60;76.00;;;;;;5096027;28;20031;-23
2022/01/01 04:35:18;;;;;;;22.95;11.27;;;2.70;76.00;;;;;;5094702;28;20033;-22
2022/01/01 04:37:44;;;;;;;64.35;24.50;;;2.70;76.10;;;;;;5095914;28;20031;-23
2022/01/01 04:40:10;;;;;;;18.70;10.23;;;2.60;76.20;;;;;;5095258;28;20020;-22
2022/01/01 04:42:36;;;;;;;8.50;5.68;;;2.70;76.00;;;;;;5095606;28;20518;-22
2022/01/01 04:45:02;;;;;;;27.90;14.80;;;2.70;76.00;;;;;;5095798;28;20059;-22
2022/01/01 04:47:28;;;;;;;39.65;15.80;;;2.60;76.00;;;;;;5096265;28;20431;-23
2022/01/01 04:49:54;;;;;;;11.30;6.57;;;2.80;76.00;;;;;;5096328;28;20089;-22
2022/01/01 04:52:21;;;;;;;12.20;7.30;;;2.70;75.90;;;;;;5095242;28;20048;-23
2022/01/01 04:54:47;;;;;;;22.25;12.00;;;2.80;76.00;;;;;;5095540;28;20070;-22
2022/01/01 04:57:13;;;;;;;9.95;5.90;;;2.80;75.80;;;;;;5095581;28;20039;-22
2022/01/01 04:59:41;;;;;;;14.15;7.05;;;2.80;75.60;;;;;;5094889;28;20035;-22
2022/01/01 05:02:10;;;;;;;39.13;14.40;;;2.80;75.60;;;;;;5095789;28;20028;-22
2022/01/01 05:04:37;;;;;;;29.25;10.95;;;2.80;75.50;;;;;;5095534;28;20023;-23
2022/01/01 05:07:07;;;;;;;16.42;10.25;;;2.80;75.40;;;;;;5095858;28;20020;-23
2022/01/01 05:09:33;;;;;;;26.88;14.00;;;2.90;75.40;;;;;;5095309;28;20027;-23
2022/01/01 05:11:59;;;;;;;17.80;8.98;;;2.80;75.40;;;;;;5095272;28;20110;-22
2022/01/01 05:14:25;;;;;;;17.88;9.63;;;2.80;75.30;;;;;;5094939;28;20032;-23
2022/01/01 05:16:52;;;;;;;12.13;8.13;;;2.80;75.20;;;;;;5095504;28;20034;-23
2022/01/01 05:19:19;;;;;;;16.90;10.35;;;2.80;75.10;;;;;;5095435;28;20036;-23
2022/01/01 05:21:46;;;;;;;23.45;12.90;;;2.80;75.30;;;;;;5095297;28;20038;-22
2022/01/01 05:24:18;;;;;;;16.20;9.65;;;2.70;75.40;;;;;;5095246;28;20085;-31
2022/01/01 05:26:44;;;;;;;20.25;10.40;;;2.80;75.30;;;;;;5095183;28;20050;-22
2022/01/01 05:29:11;;;;;;;19.90;12.10;;;2.70;75.40;;;;;;5095153;28;20024;-23
2022/01/01 05:31:37;;;;;;;29.27;16.92;;;2.80;75.40;;;;;;5095383;28;20016;-22
2022/01/01 05:34:05;;;;;;;40.13;16.88;;;2.80;75.50;;;;;;5094768;28;20549;-22
2022/01/01 05:36:31;;;;;;;13.50;7.82;;;2.80;75.50;;;;;;5094540;28;20024;-23
2022/01/01 05:38:57;;;;;;;41.25;20.55;;;2.80;75.40;;;;;;5095027;28;20024;-22
2022/01/01 05:41:23;;;;;;;36.33;17.83;;;2.80;75.50;;;;;;5094887;28;20369;-23
2022/01/01 05:43:49;;;;;;;16.52;10.43;;;2.80;75.50;;;;;;5094801;28;20491;-23
2022/01/01 05:46:16;;;;;;;31.33;14.98;;;2.80;75.40;;;;;;5094401;28;20024;-23
2022/01/01 05:48:42;;;;;;;21.35;11.23;;;2.80;75.50;;;;;;5094543;28;20479;-22
2022/01/01 05:51:08;;;;;;;12.95;7.57;;;2.70;75.40;;;;;;5094460;28;20487;-23
2022/01/01 05:53:34;;;;;;;79.75;26.50;;;2.70;75.30;;;;;;5094284;28;20044;-23
2022/01/01 05:56:00;;;;;;;34.42;18.85;;;2.70;75.80;;;;;;5094716;28;20032;-22
2022/01/01 05:58:26;;;;;;;16.40;10.10;;;2.60;75.90;;;;;;5094271;28;20070;-22
2022/01/01 06:00:52;;;;;;;43.45;19.98;;;2.60;75.90;;;;;;5094626;28;20016;-23
2022/01/01 06:03:18;;;;;;;12.45;7.00;;;2.60;76.30;;;;;;5094254;28;20480;-23
2022/01/01 06:05:45;;;;;;;15.05;9.73;;;2.50;76.00;;;;;;5094102;28;20028;-23
2022/01/01 06:08:11;;;;;;;31.67;16.88;;;2.50;75.90;;;;;;5094155;28;20047;-23
2022/01/01 06:10:38;;;;;;;46.85;19.05;;;2.50;76.10;;;;;;5093250;28;20059;-23
2022/01/01 06:13:07;;;;;;;30.77;13.80;;;2.50;76.30;;;;;;5094384;28;20032;-22
2022/01/01 06:15:33;;;;;;;23.25;13.45;;;2.50;76.20;;;;;;5094377;28;20031;-23
2022/01/01 06:17:59;;;;;;;26.13;11.45;;;2.50;76.10;;;;;;5094026;28;20081;-22
2022/01/01 06:20:25;;;;;;;45.13;17.27;;;2.50;76.00;;;;;;5094092;28;20024;-23
2022/01/01 06:22:51;;;;;;;40.60;16.20;;;2.50;76.10;;;;;;5094746;28;20462;-22
2022/01/01 06:25:17;;;;;;;11.52;6.72;;;2.50;76.00;;;;;;5092697;28;20107;-22
2022/01/01 06:27:43;;;;;;;103.78;30.85;;;2.50;75.90;;;;;;5093864;28;20107;-22
2022/01/01 06:30:10;;;;;;;48.50;18.65;;;2.50;75.80;;;;;;5093735;28;20024;-22
2022/01/01 06:32:36;;;;;;;72.43;22.73;;;2.50;75.90;;;;;;5093867;28;20024;-22
2022/01/01 06:35:04;;;;;;;53.17;21.58;;;2.50;76.10;;;;;;5093647;28;20536;-22
2022/01/01 06:37:30;;;;;;;20.65;11.75;;;2.40;76.00;;;;;;5093531;28;20364;-22
2022/01/01 06:39:56;;;;;;;18.20;10.32;;;2.40;75.90;;;;;;5093812;28;20153;-23
2022/01/01 06:42:23;;;;;;;31.45;14.38;;;2.40;75.90;;;;;;5093676;28;20028;-22
2022/01/01 06:44:49;;;;;;;43.65;16.65;;;2.40;75.80;;;;;;5093612;28;20062;-23
2022/01/01 06:47:15;;;;;;;25.75;13.45;;;2.40;75.90;;;;;;5094147;28;20071;-22
2022/01/01 06:49:41;;;;;;;28.27;12.25;;;2.40;76.00;;;;;;5093331;28;20056;-23
2022/01/01 06:52:07;;;;;;;21.13;12.57;;;2.40;75.80;;;;;;5093469;28;20153;-22
2022/01/01 06:54:33;;;;;;;10.48;6.43;;;2.40;76.00;;;;;;5093531;28;20569;-23
2022/01/01 06:56:59;;;;;;;131.85;35.10;;;2.40;75.90;;;;;;5093300;28;20368;-23
2022/01/01 06:59:24;;;;;;;18.50;11.02;;;2.40;76.40;;;;;;5093801;28;20069;-22
2022/01/01 07:01:52;;;;;;;16.02;10.90;;;2.40;76.30;;;;;;5093650;28;20059;-22
2022/01/01 07:04:17;;;;;;;47.20;19.73;;;2.40;76.00;;;;;;5093112;28;20548;-23
2022/01/01 07:06:43;;;;;;;12.35;8.10;;;2.40;76.10;;;;;;5093191;28;20052;-22
2022/01/01 07:09:09;;;;;;;61.85;21.20;;;2.40;75.90;;;;;;5093524;28;20069;-22
2022/01/01 07:11:35;;;;;;;15.48;8.43;;;2.40;75.80;;;;;;5093535;28;20056;-22
2022/01/01 07:14:01;;;;;;;22.25;12.77;;;2.50;75.70;;;;;;5093284;28;20407;-23
2022/01/01 07:16:27;;;;;;;116.65;32.35;;;2.50;75.70;;;;;;5092984;28;20606;-22
2022/01/01 07:18:53;;;;;;;64.32;22.48;;;2.40;75.70;;;;;;5093761;28;20024;-22
2022/01/01 07:21:18;;;;;;;50.38;17.80;;;2.40;75.70;;;;;;5093761;28;20383;-23
2022/01/01 07:23:44;;;;;;;24.58;13.40;;;2.40;75.90;;;;;;5097952;28;20012;-22
2022/01/01 07:26:10;;;;;;;16.33;10.13;;;2.40;75.90;;;;;;5097310;28;20035;-22
2022/01/01 07:28:36;;;;;;;19.08;10.10;;;2.40;75.80;;;;;;5097364;28;20028;-22
2022/01/01 07:31:01;;;;;;;90.03;22.02;;;2.40;75.70;;;;;;5097213;28;20020;-22
2022/01/01 07:33:27;;;;;;;20.35;9.02;;;2.40;76.00;;;;;;5097432;28;20028;-23
2022/01/01 07:35:55;;;;;;;50.97;16.45;;;2.30;76.00;;;;;;5097308;28;20040;-22
2022/01/01 07:38:22;;;;;;;38.65;14.82;;;2.40;76.10;;;;;;5096851;28;20036;-22
2022/01/01 07:40:49;;;;;;;22.33;9.70;;;2.40;76.00;;;;;;5097326;28;20028;-22
2022/01/01 07:43:17;;;;;;;27.42;13.63;;;2.40;76.00;;;;;;5097303;28;20053;-23
2022/01/01 07:45:44;;;;;;;84.80;26.58;;;2.40;75.90;;;;;;5097141;28;20380;-22
2022/01/01 07:48:10;;;;;;;50.45;19.95;;;2.40;76.40;;;;;;5096904;28;20036;-23
2022/01/01 07:50:37;;;;;;;66.82;21.83;;;2.40;76.60;;;;;;5096607;28;20107;-22
2022/01/01 07:53:05;;;;;;;23.92;14.73;;;2.40;76.20;;;;;;5096684;28;20130;-21
2022/01/01 07:55:32;;;;;;;56.30;21.63;;;2.50;76.30;;;;;;5096707;28;20476;-22
2022/01/01 07:57:58;;;;;;;104.00;31.77;;;2.40;76.60;;;;;;5097019;28;20042;-21
2022/01/01 08:00:24;;;;;;;61.55;22.92;;;2.40;76.70;;;;;;5096428;28;20024;-22
2022/01/01 08:02:49;;;;;;;61.10;23.38;;;2.30;76.70;;;;;;5096608;28;20111;-22
2022/01/01 08:05:16;;;;;;;23.73;13.60;;;2.30;76.60;;;;;;5096869;28;20154;-22
2022/01/01 08:07:44;;;;;;;40.63;19.92;;;2.30;76.50;;;;;;5096761;28;20024;-22
2022/01/01 08:10:11;;;;;;;89.55;28.00;;;2.20;76.80;;;;;;5096583;28;20111;-22
2022/01/01 08:12:38;;;;;;;74.75;26.60;;;2.20;76.90;;;;;;5095213;28;20028;-22
2022/01/01 08:15:05;;;;;;;71.00;27.85;;;2.10;77.00;;;;;;5095398;28;20020;-22
2022/01/01 08:17:32;;;;;;;61.20;24.92;;;2.10;78.00;;;;;;5096334;28;20028;-22
2022/01/01 08:19:58;;;;;;;61.33;24.17;;;2.10;78.20;;;;;;5096310;28;20032;-22
2022/01/01 08:22:24;;;;;;;73.95;26.40;;;2.10;78.20;;;;;;5094747;28;20027;-22
2022/01/01 08:24:51;;;;;;;61.17;25.27;;;2.10;78.40;;;;;;5096872;28;20111;-22
2022/01/01 08:27:17;;;;;;;90.45;32.40;;;2.20;78.60;;;;;;5096148;28;20028;-22
2022/01/01 08:29:43;;;;;;;66.93;26.42;;;2.10;79.40;;;;;;5096339;28;20383;-21
2022/01/01 08:32:11;;;;;;;77.47;25.42;;;2.10;79.00;;;;;;5096371;28;20036;-21
2022/01/01 08:34:37;;;;;;;68.47;27.42;;;2.20;78.80;;;;;;5094643;28;20081;-22
2022/01/01 08:37:04;;;;;;;62.47;22.35;;;2.20;78.90;;;;;;5095860;28;20114;-23
2022/01/01 08:39:30;;;;;;;43.03;16.40;;;2.20;78.70;;;;;;5096455;28;20032;-22
2022/01/01 08:41:55;;;;;;;80.85;29.60;;;2.20;78.30;;;;;;5096219;28;20042;-21
2022/01/01 08:44:22;;;;;;;89.28;31.27;;;2.30;78.50;;;;;;5095535;28;20024;-22
2022/01/01 08:46:48;;;;;;;57.33;22.30;;;2.30;78.30;;;;;;5096101;28;20059;-21
2022/01/01 08:49:14;;;;;;;50.28;19.38;;;2.30;78.30;;;;;;5096008;28;20027;-21
2022/01/01 08:51:44;;;;;;;66.47;27.35;;;2.40;78.00;;;;;;5095799;28;20103;-22
2022/01/01 08:54:13;;;;;;;49.00;24.38;;;2.40;78.10;;;;;;5095320;28;20043;-22
2022/01/01 08:56:39;;;;;;;35.33;16.15;;;2.50;78.30;;;;;;5095614;28;20028;-22
2022/01/01 08:59:04;;;;;;;30.55;15.18;;;2.50;78.00;;;;;;5095857;28;20050;-22
2022/01/01 09:01:30;;;;;;;66.20;28.17;;;2.60;77.70;;;;;;5095570;28;20476;-22
2022/01/01 09:03:56;;;;;;;60.10;27.85;;;2.70;77.70;;;;;;5095374;28;20479;-22
2022/01/01 09:06:22;;;;;;;30.05;14.45;;;2.80;78.10;;;;;;5095042;28;20024;-21
2022/01/01 09:08:50;;;;;;;31.23;15.77;;;2.90;77.70;;;;;;5095348;28;20031;-21
2022/01/01 09:11:16;;;;;;;17.08;10.45;;;3.00;77.40;;;;;;5095657;28;20113;-22
2022/01/01 09:13:43;;;;;;;82.97;33.35;;;3.00;76.90;;;;;;5095204;28;20078;-21
2022/01/01 09:16:17;;;;;;;21.67;12.77;;;3.10;77.40;;;;;;5095190;28;20036;-22
2022/01/01 09:18:45;;;;;;;39.65;21.70;;;3.20;76.80;;;;;;5095168;28;20574;-21
2022/01/01 09:21:12;;;;;;;34.92;20.88;;;3.30;76.90;;;;;;5094997;28;20028;-23
2022/01/01 09:23:38;;;;;;;55.35;24.30;;;3.30;76.70;;;;;;5095397;28;20031;-22
2022/01/01 09:26:04;;;;;;;34.53;15.70;;;3.40;76.80;;;;;;5095263;28;20078;-22
2022/01/01 09:28:32;;;;;;;50.67;25.70;;;3.50;76.80;;;;;;5094875;28;20495;-22
2022/01/01 09:30:59;;;;;;;62.50;28.27;;;3.60;77.00;;;;;;5094936;28;20031;-22
2022/01/01 09:33:29;;;;;;;65.22;29.70;;;3.60;77.30;;;;;;5096179;28;20020;-22
2022/01/01 09:36:00;;;;;;;22.15;13.48;;;3.70;77.00;;;;;;5094693;28;20036;-22
2022/01/01 09:38:27;;;;;;;38.42;22.67;;;3.80;76.50;;;;;;5094941;28;20020;-22
2022/01/01 09:40:54;;;;;;;44.15;24.63;;;3.90;76.70;;;;;;5095181;28;20373;-22
2022/01/01 09:43:23;;;;;;;40.70;24.67;;;4.00;76.50;;;;;;5094996;28;20032;-21
2022/01/01 09:45:50;;;;;;;45.05;26.10;;;4.10;76.30;;;;;;5094439;28;20511;-21
2022/01/01 09:48:21;;;;;;;63.30;33.35;;;4.20;76.30;;;;;;5094376;28;20031;-22
2022/01/01 09:50:54;;;;;;;30.83;19.05;;;4.30;76.20;;;;;;5095406;28;20419;-23
2022/01/01 09:53:23;;;;;;;34.03;18.50;;;4.40;76.00;;;;;;5094335;28;20109;-22
2022/01/01 09:55:49;;;;;;;54.90;30.23;;;4.50;75.70;;;;;;5094727;28;20020;-21
2022/01/01 09:58:15;;;;;;;54.30;28.13;;;4.60;75.70;;;;;;5094210;28;20111;-22
2022/01/01 10:00:41;;;;;;;52.17;29.98;;;4.60;75.40;;;;;;5094344;28;20107;-22
2022/01/01 10:03:13;;;;;;;35.72;20.52;;;4.60;75.10;;;;;;5094280;28;20499;-21
2022/01/01 10:05:59;;;;;;;64.88;31.63;;;4.70;74.90;;;;;;5094217;28;20030;-22
2022/01/01 10:08:27;;;;;;;44.83;26.45;;;4.70;75.10;;;;;;5093227;28;20395;-22
2022/01/01 10:10:53;;;;;;;43.10;23.60;;;4.70;75.00;;;;;;5094462;28;20069;-22
2022/01/01 10:13:26;;;;;;;42.00;23.55;;;4.80;75.10;;;;;;5094704;28;20028;-22
2022/01/01 10:15:57;;;;;;;30.92;17.25;;;4.80;75.10;;;;;;5094163;28;20073;-22
2022/01/01 10:18:31;;;;;;;31.08;18.40;;;4.80;75.10;;;;;;5094505;28;20025;-22
2022/01/01 10:21:06;;;;;;;63.85;33.22;;;4.90;75.00;;;;;;5094293;28;20028;-22
2022/01/01 10:23:33;;;;;;;44.45;22.77;;;5.00;75.00;;;;;;5092800;28;20024;-22
2022/01/01 10:28:59;;;;;;;80.28;34.90;;;5.20;75.00;;;;;;5094753;28;20093;-22
2022/01/01 10:31:25;;;;;;;51.63;26.10;;;5.20;75.10;;;;;;5094091;28;20032;-22
2022/01/01 10:33:51;;;;;;;71.47;35.70;;;5.30;75.40;;;;;;5093990;28;20032;-22
2022/01/01 10:36:20;;;;;;;71.80;33.33;;;5.40;75.30;;;;;;5093373;28;20107;-22
2022/01/01 10:38:46;;;;;;;77.38;37.95;;;5.40;75.20;;;;;;5094004;28;20085;-22
2022/01/01 10:41:13;;;;;;;87.10;38.60;;;5.50;75.20;;;;;;5094055;28;20426;-22
2022/01/01 10:43:45;;;;;;;48.67;25.25;;;5.40;75.30;;;;;;5093575;28;20550;-21
2022/01/01 10:46:19;;;;;;;66.70;33.00;;;5.40;75.10;;;;;;5093890;28;20031;-22
2022/01/01 10:48:58;;;;;;;57.72;31.95;;;5.40;75.20;;;;;;5093563;28;20024;-22
2022/01/01 10:51:24;;;;;;;69.53;30.83;;;5.50;75.50;;;;;;5093472;28;20028;-22
2022/01/01 10:54:02;;;;;;;73.40;37.33;;;5.50;75.60;;;;;;5093174;28;20519;-22
2022/01/01 10:56:37;;;;;;;51.40;26.77;;;5.50;75.80;;;;;;5092644;28;20024;-22
2022/01/01 10:59:04;;;;;;;60.72;28.83;;;5.60;75.40;;;;;;5093728;28;20024;-22
2022/01/01 11:01:33;;;;;;;54.17;28.75;;;5.60;75.60;;;;;;5093611;28;20032;-22
2022/01/01 11:04:01;;;;;;;48.10;27.92;;;5.60;75.70;;;;;;5093287;28;20016;-22
2022/01/01 11:06:32;;;;;;;43.05;23.85;;;5.70;75.80;;;;;;5092961;28;20103;-22
2022/01/01 11:08:59;;;;;;;31.95;19.70;;;5.70;75.70;;;;;;5094140;28;20021;-22
2022/01/01 11:11:26;;;;;;;39.78;22.90;;;5.80;75.70;;;;;;5093868;28;20024;-22
2022/01/01 11:13:53;;;;;;;67.32;31.63;;;5.90;75.70;;;;;;5093080;28;20027;-23
2022/01/01 11:16:21;;;;;;;21.48;14.40;;;5.90;75.80;;;;;;5093045;28;20032;-22
2022/01/01 11:18:47;;;;;;;56.75;30.33;;;6.10;75.60;;;;;;5093470;28;20128;-22
2022/01/01 11:21:14;;;;;;;37.92;21.42;;;6.20;75.60;;;;;;5091816;28;20032;-22
2022/01/01 11:23:41;;;;;;;25.83;16.42;;;6.30;75.20;;;;;;5093188;28;20380;-22
2022/01/01 11:26:08;;;;;;;34.08;18.83;;;6.40;75.10;;;;;;5093428;28;20036;-22
2022/01/01 11:28:36;;;;;;;55.90;31.30;;;6.40;75.00;;;;;;5093179;28;20111;-22
2022/01/01 11:31:12;;;;;;;54.22;30.38;;;6.50;75.00;;;;;;5093015;28;20102;-22
2022/01/01 11:33:41;;;;;;;47.47;26.35;;;6.60;74.70;;;;;;5093029;28;20031;-22
2022/01/01 11:36:18;;;;;;;26.65;17.15;;;6.70;74.60;;;;;;5093537;28;20024;-21
2022/01/01 11:38:44;;;;;;;57.45;28.00;;;6.80;74.50;;;;;;5093353;28;20066;-22
2022/01/01 11:41:13;;;;;;;40.47;24.33;;;6.90;74.50;;;;;;5093257;28;20050;-22
2022/01/01 11:43:38;;;;;;;15.43;9.48;;;6.90;74.30;;;;;;5091736;28;20081;-22
2022/01/01 11:46:19;;;;;;;40.80;25.20;;;7.00;74.20;;;;;;5092887;28;20025;-22
2022/01/01 11:48:48;;;;;;;44.35;25.25;;;7.20;73.90;;;;;;5093769;28;20468;-22
2022/01/01 11:51:23;;;;;;;19.75;12.18;;;7.30;74.10;;;;;;5093087;28;20043;-22
2022/01/01 11:54:15;;;;;;;33.78;20.63;;;7.40;73.60;;;;;;5091267;28;20134;-22
2022/01/01 11:56:50;;;;;;;25.27;15.60;;;7.60;73.60;;;;;;5051182;28;20037;-22
2022/01/01 11:59:29;;;;;;;46.92;26.77;;;7.90;73.30;;;;;;5050513;28;20112;-22
2022/01/01 12:01:56;;;;;;;33.03;18.92;;;8.00;72.60;;;;;;5050478;28;20029;-22
2022/01/01 12:04:34;;;;;;;18.27;10.57;;;8.10;72.60;;;;;;5050311;28;20116;-22
2022/01/01 12:07:12;;;;;;;22.52;14.55;;;8.30;72.40;;;;;;5050471;28;20595;-22
2022/01/01 12:12:58;;;;;;;15.70;9.25;;;8.90;71.50;;;;;;5054653;28;20029;-22
2022/01/01 12:15:31;;;;;;;36.08;22.58;;;9.30;71.20;;;;;;5014568;28;20042;-22
2022/01/01 12:18:02;;;;;;;38.20;24.60;;;9.80;70.10;;;;;;5014266;28;20046;-22
2022/01/01 12:20:27;;;;;;;31.40;19.92;;;10.20;68.70;;;;;;5014219;28;20188;-22
2022/01/01 12:22:54;;;;;;;35.67;20.58;;;10.70;68.10;;;;;;5014663;28;20501;-22
2022/01/01 12:25:26;;;;;;;32.97;20.85;;;11.20;67.00;;;;;;5014206;28;20030;-22
2022/01/01 12:27:55;;;;;;;25.30;16.02;;;11.70;65.70;;;;;;5014243;28;20038;-22
2022/01/01 12:30:49;;;;;;;32.60;20.52;;;12.20;65.10;;;;;;5013911;28;20088;-22
2022/01/01 12:33:25;;;;;;;18.83;12.38;;;12.80;64.10;;;;;;5022308;28;20025;-22
2022/01/01 12:35:55;;;;;;;31.42;20.58;;;13.40;62.70;;;;;;5033750;28;20033;-22
2022/01/01 12:38:29;;;;;;;28.67;20.63;;;13.80;61.30;;;;;;5033415;28;20503;-22
2022/01/01 12:40:56;;;;;;;;;;;14.10;60.50;;;;;;5034574;28;20083;-22
2022/01/01 12:43:23;;;;;;;25.35;16.80;;;14.40;60.10;;;;;;5033665;28;19905;-22
2022/01/01 12:45:54;;;;;;;38.60;24.38;;;14.50;59.50;;;;;;5033693;28;20044;-22
2022/01/01 12:48:32;;;;;;;30.35;21.27;;;14.40;58.90;;;;;;5033416;28;20029;-22
2022/01/01 12:51:05;;;;;;;25.92;17.08;;;14.20;59.40;;;;;;5035478;28;20022;-22